sensor_id;sensor_type;location;lat;lon;timestamp;temperature;humidity
6178;DHT22;3122;48.208;11.174;2023-04-30T00:03:33;10.70;1.00
6178;DHT22;3122;48.208;11.174;2023-04-30T00:08:34;10.60;1.00
6178;DHT22;3122;48.208;11.174;2023-04-30T00:13:34;10.70;1.00
6178;DHT22;3122;48.208;11.174;2023-04-30T00:18:35;10.60;1.00
6178;DHT22;3122;48.208;11.174;2023-04-30T00:23:36;10.50;1.00
6178;DHT22;3122;48.208;11.174;2023-04-30T00:28:36;10.40;1.00
6178;DHT22;3122;48.208;11.174;2023-04-30T00:33:37;10.30;1.00
6178;DHT22;3122;48.208;11.174;2023-04-30T00:38:37;10.30;1.00
6178;DHT22;3122;48.208;11.174;2023-04-30T00:43:39;10.30;1.00
6178;DHT22;3122;48.208;11.174;2023-04-30T00:48:39;10.40;1.00
6178;DHT22;3122;48.208;11.174;2023-04-30T00:53:40;10.40;1.00
6178;DHT22;3122;48.208;11.174;2023-04-30T00:58:41;10.20;1.00
6178;DHT22;3122;48.208;11.174;2023-04-30T01:03:42;10.20;1.00
6178;DHT22;3122;48.208;11.174;2023-04-30T01:08:43;10.20;1.00
6178;DHT22;3122;48.208;11.174;2023-04-30T01:13:54;10.20;1.00
6178;DHT22;3122;48.208;11.174;2023-04-30T01:19:08;10.20;1.00
6178;DHT22;3122;48.208;11.174;2023-04-30T01:29:23;10.20;1.00
6178;DHT22;3122;48.208;11.174;2023-04-30T01:34:26;10.20;1.00
6178;DHT22;3122;48.208;11.174;2023-04-30T01:45:08;10.30;1.00
6178;DHT22;3122;48.208;11.174;2023-04-30T01:55:43;10.30;1.00
6178;DHT22;3122;48.208;11.174;2023-04-30T02:00:44;10.30;1.00
6178;DHT22;3122;48.208;11.174;2023-04-30T02:05:46;10.10;1.00
6178;DHT22;3122;48.208;11.174;2023-04-30T02:10:46;9.90;1.00
6178;DHT22;3122;48.208;11.174;2023-04-30T02:15:47;10.10;1.00
6178;DHT22;3122;48.208;11.174;2023-04-30T02:20:47;10.10;1.00
6178;DHT22;3122;48.208;11.174;2023-04-30T02:25:48;10.00;1.00
6178;DHT22;3122;48.208;11.174;2023-04-30T02:30:49;10.00;1.00
6178;DHT22;3122;48.208;11.174;2023-04-30T02:35:49;10.10;1.00
6178;DHT22;3122;48.208;11.174;2023-04-30T02:40:50;10.00;1.00
6178;DHT22;3122;48.208;11.174;2023-04-30T02:45:50;10.00;1.00
6178;DHT22;3122;48.208;11.174;2023-04-30T02:50:51;9.90;1.00
6178;DHT22;3122;48.208;11.174;2023-04-30T02:55:51;9.90;1.00
6178;DHT22;3122;48.208;11.174;2023-04-30T03:00:52;9.90;1.00
6178;DHT22;3122;48.208;11.174;2023-04-30T03:05:53;9.90;1.00
6178;DHT22;3122;48.208;11.174;2023-04-30T03:10:55;9.90;1.00
6178;DHT22;3122;48.208;11.174;2023-04-30T03:15:57;9.90;1.00
6178;DHT22;3122;48.208;11.174;2023-04-30T03:20:58;9.90;1.00
6178;DHT22;3122;48.208;11.174;2023-04-30T03:25:59;9.80;1.00
6178;DHT22;3122;48.208;11.174;2023-04-30T03:31:01;9.70;1.00
6178;DHT22;3122;48.208;11.174;2023-04-30T03:36:04;9.60;1.00
6178;DHT22;3122;48.208;11.174;2023-04-30T03:41:05;9.60;1.00
6178;DHT22;3122;48.208;11.174;2023-04-30T03:46:06;9.50;1.00
6178;DHT22;3122;48.208;11.174;2023-04-30T03:51:06;9.50;1.00
6178;DHT22;3122;48.208;11.174;2023-04-30T03:56:08;9.40;1.00
6178;DHT22;3122;48.208;11.174;2023-04-30T04:01:09;9.40;1.00
6178;DHT22;3122;48.208;11.174;2023-04-30T04:06:09;9.30;1.00
6178;DHT22;3122;48.208;11.174;2023-04-30T04:11:10;9.30;1.00
6178;DHT22;3122;48.208;11.174;2023-04-30T04:16:11;9.30;1.00
6178;DHT22;3122;48.208;11.174;2023-04-30T04:21:12;9.30;1.00
6178;DHT22;3122;48.208;11.174;2023-04-30T04:26:12;9.20;1.00
6178;DHT22;3122;48.208;11.174;2023-04-30T04:31:14;9.30;1.00
6178;DHT22;3122;48.208;11.174;2023-04-30T04:36:15;9.40;1.00
6178;DHT22;3122;48.208;11.174;2023-04-30T04:41:15;9.50;1.00
6178;DHT22;3122;48.208;11.174;2023-04-30T04:46:16;9.50;1.00
6178;DHT22;3122;48.208;11.174;2023-04-30T04:51:17;9.50;1.00
6178;DHT22;3122;48.208;11.174;2023-04-30T04:56:17;9.60;1.00
6178;DHT22;3122;48.208;11.174;2023-04-30T05:01:18;9.60;1.00
6178;DHT22;3122;48.208;11.174;2023-04-30T05:06:18;9.70;1.00
6178;DHT22;3122;48.208;11.174;2023-04-30T05:11:20;9.70;1.00
6178;DHT22;3122;48.208;11.174;2023-04-30T05:16:21;9.60;1.00
6178;DHT22;3122;48.208;11.174;2023-04-30T05:21:22;9.50;1.00
6178;DHT22;3122;48.208;11.174;2023-04-30T05:26:22;9.60;1.00
6178;DHT22;3122;48.208;11.174;2023-04-30T05:31:23;9.70;1.00
6178;DHT22;3122;48.208;11.174;2023-04-30T05:36:24;9.70;1.00
6178;DHT22;3122;48.208;11.174;2023-04-30T05:41:25;9.70;1.00
6178;DHT22;3122;48.208;11.174;2023-04-30T05:46:25;9.80;1.00
6178;DHT22;3122;48.208;11.174;2023-04-30T05:51:26;9.80;1.00
6178;DHT22;3122;48.208;11.174;2023-04-30T05:56:27;10.00;1.00
6178;DHT22;3122;48.208;11.174;2023-04-30T06:01:28;10.00;1.00
6178;DHT22;3122;48.208;11.174;2023-04-30T06:06:28;10.00;1.00
6178;DHT22;3122;48.208;11.174;2023-04-30T06:11:30;10.00;1.00
6178;DHT22;3122;48.208;11.174;2023-04-30T06:16:31;10.10;1.00
6178;DHT22;3122;48.208;11.174;2023-04-30T06:21:31;10.20;1.00
6178;DHT22;3122;48.208;11.174;2023-04-30T06:26:32;10.20;1.00
6178;DHT22;3122;48.208;11.174;2023-04-30T06:31:32;10.20;1.00
6178;DHT22;3122;48.208;11.174;2023-04-30T06:36:33;10.30;1.00
6178;DHT22;3122;48.208;11.174;2023-04-30T06:41:34;10.40;1.00
6178;DHT22;3122;48.208;11.174;2023-04-30T06:46:34;10.50;1.00
6178;DHT22;3122;48.208;11.174;2023-04-30T06:51:35;10.60;1.00
6178;DHT22;3122;48.208;11.174;2023-04-30T06:56:35;10.60;1.00
6178;DHT22;3122;48.208;11.174;2023-04-30T07:01:36;10.90;1.00
6178;DHT22;3122;48.208;11.174;2023-04-30T07:06:37;11.10;1.00
6178;DHT22;3122;48.208;11.174;2023-04-30T07:11:37;11.00;1.00
6178;DHT22;3122;48.208;11.174;2023-04-30T07:16:39;11.10;1.00
6178;DHT22;3122;48.208;11.174;2023-04-30T07:21:39;11.00;1.00
6178;DHT22;3122;48.208;11.174;2023-04-30T07:26:40;11.00;1.00
6178;DHT22;3122;48.208;11.174;2023-04-30T07:31:41;11.20;1.00
6178;DHT22;3122;48.208;11.174;2023-04-30T07:36:42;11.40;1.00
6178;DHT22;3122;48.208;11.174;2023-04-30T07:41:42;11.50;1.00
6178;DHT22;3122;48.208;11.174;2023-04-30T07:46:43;11.80;1.00
6178;DHT22;3122;48.208;11.174;2023-04-30T07:51:44;11.90;1.00
6178;DHT22;3122;48.208;11.174;2023-04-30T07:56:45;12.00;1.00
6178;DHT22;3122;48.208;11.174;2023-04-30T08:01:48;12.10;1.00
6178;DHT22;3122;48.208;11.174;2023-04-30T08:06:48;12.40;1.00
6178;DHT22;3122;48.208;11.174;2023-04-30T08:11:49;12.60;1.00
6178;DHT22;3122;48.208;11.174;2023-04-30T08:16:49;12.50;1.00
6178;DHT22;3122;48.208;11.174;2023-04-30T08:21:50;12.60;1.00
6178;DHT22;3122;48.208;11.174;2023-04-30T08:26:51;12.60;1.00
6178;DHT22;3122;48.208;11.174;2023-04-30T08:31:51;12.70;1.00
6178;DHT22;3122;48.208;11.174;2023-04-30T08:36:52;12.60;1.00
6178;DHT22;3122;48.208;11.174;2023-04-30T08:41:56;12.90;1.00
6178;DHT22;3122;48.208;11.174;2023-04-30T08:47:02;13.20;1.00
6178;DHT22;3122;48.208;11.174;2023-04-30T08:52:03;13.60;1.00
6178;DHT22;3122;48.208;11.174;2023-04-30T08:57:04;13.60;1.00
6178;DHT22;3122;48.208;11.174;2023-04-30T09:02:05;13.30;1.00
6178;DHT22;3122;48.208;11.174;2023-04-30T09:07:05;13.60;1.00
6178;DHT22;3122;48.208;11.174;2023-04-30T09:12:16;13.60;1.00
6178;DHT22;3122;48.208;11.174;2023-04-30T09:17:21;13.80;1.00
6178;DHT22;3122;48.208;11.174;2023-04-30T09:22:23;13.80;1.00
6178;DHT22;3122;48.208;11.174;2023-04-30T09:27:23;14.00;1.00
6178;DHT22;3122;48.208;11.174;2023-04-30T09:32:24;14.30;1.00
6178;DHT22;3122;48.208;11.174;2023-04-30T09:37:35;14.00;1.00
6178;DHT22;3122;48.208;11.174;2023-04-30T09:42:36;13.50;1.00
6178;DHT22;3122;48.208;11.174;2023-04-30T09:47:38;13.60;1.00
6178;DHT22;3122;48.208;11.174;2023-04-30T09:52:39;13.80;1.00
6178;DHT22;3122;48.208;11.174;2023-04-30T09:57:40;13.80;1.00
6178;DHT22;3122;48.208;11.174;2023-04-30T10:02:40;14.00;1.00
6178;DHT22;3122;48.208;11.174;2023-04-30T10:07:41;14.10;1.00
6178;DHT22;3122;48.208;11.174;2023-04-30T10:12:47;14.20;1.00
6178;DHT22;3122;48.208;11.174;2023-04-30T10:17:57;14.10;1.00
6178;DHT22;3122;48.208;11.174;2023-04-30T10:22:59;14.20;1.00
6178;DHT22;3122;48.208;11.174;2023-04-30T10:28:00;14.30;1.00
6178;DHT22;3122;48.208;11.174;2023-04-30T10:38:49;14.70;1.00
6178;DHT22;3122;48.208;11.174;2023-04-30T10:43:50;14.50;1.00
6178;DHT22;3122;48.208;11.174;2023-04-30T10:48:54;14.40;1.00
6178;DHT22;3122;48.208;11.174;2023-04-30T10:53:55;14.60;1.00
6178;DHT22;3122;48.208;11.174;2023-04-30T10:59:00;14.60;1.00
6178;DHT22;3122;48.208;11.174;2023-04-30T11:04:09;14.60;1.00
6178;DHT22;3122;48.208;11.174;2023-04-30T11:09:10;14.80;1.00
6178;DHT22;3122;48.208;11.174;2023-04-30T11:14:11;14.90;1.00
6178;DHT22;3122;48.208;11.174;2023-04-30T11:19:13;14.70;1.00
6178;DHT22;3122;48.208;11.174;2023-04-30T11:24:13;14.80;1.00
6178;DHT22;3122;48.208;11.174;2023-04-30T11:29:14;14.70;1.00
6178;DHT22;3122;48.208;11.174;2023-04-30T11:34:16;14.80;1.00
6178;DHT22;3122;48.208;11.174;2023-04-30T11:39:17;15.00;1.00
6178;DHT22;3122;48.208;11.174;2023-04-30T11:44:25;15.20;1.00
6178;DHT22;3122;48.208;11.174;2023-04-30T11:49:26;15.10;1.00
6178;DHT22;3122;48.208;11.174;2023-04-30T11:54:30;15.40;1.00
6178;DHT22;3122;48.208;11.174;2023-04-30T11:59:39;15.40;1.00
6178;DHT22;3122;48.208;11.174;2023-04-30T12:04:43;15.70;1.00
6178;DHT22;3122;48.208;11.174;2023-04-30T12:09:54;15.30;1.00
6178;DHT22;3122;48.208;11.174;2023-04-30T12:14:55;15.70;1.00
6178;DHT22;3122;48.208;11.174;2023-04-30T12:19:55;15.50;1.00
6178;DHT22;3122;48.208;11.174;2023-04-30T12:24:58;15.90;1.00
6178;DHT22;3122;48.208;11.174;2023-04-30T12:30:07;15.90;1.00
6178;DHT22;3122;48.208;11.174;2023-04-30T12:35:13;15.80;1.00
6178;DHT22;3122;48.208;11.174;2023-04-30T12:40:14;15.80;1.00
6178;DHT22;3122;48.208;11.174;2023-04-30T12:45:50;15.60;1.00
6178;DHT22;3122;48.208;11.174;2023-04-30T12:51:01;15.40;1.00
6178;DHT22;3122;48.208;11.174;2023-04-30T12:56:17;15.50;1.00
6178;DHT22;3122;48.208;11.174;2023-04-30T13:01:20;15.50;1.00
6178;DHT22;3122;48.208;11.174;2023-04-30T13:06:22;15.60;1.00
6178;DHT22;3122;48.208;11.174;2023-04-30T13:11:22;15.80;1.00
6178;DHT22;3122;48.208;11.174;2023-04-30T13:16:24;15.80;1.00
6178;DHT22;3122;48.208;11.174;2023-04-30T13:21:24;15.70;1.00
6178;DHT22;3122;48.208;11.174;2023-04-30T13:26:27;15.70;1.00
6178;DHT22;3122;48.208;11.174;2023-04-30T13:31:27;15.70;1.00
6178;DHT22;3122;48.208;11.174;2023-04-30T13:36:28;15.80;1.00
6178;DHT22;3122;48.208;11.174;2023-04-30T13:41:29;15.50;1.00
6178;DHT22;3122;48.208;11.174;2023-04-30T13:46:29;15.50;1.00
6178;DHT22;3122;48.208;11.174;2023-04-30T13:51:30;15.70;1.00
6178;DHT22;3122;48.208;11.174;2023-04-30T13:56:31;15.50;1.00
6178;DHT22;3122;48.208;11.174;2023-04-30T14:01:32;15.30;1.00
6178;DHT22;3122;48.208;11.174;2023-04-30T14:06:33;15.40;1.00
6178;DHT22;3122;48.208;11.174;2023-04-30T14:11:34;15.50;1.00
6178;DHT22;3122;48.208;11.174;2023-04-30T14:16:34;16.00;1.00
6178;DHT22;3122;48.208;11.174;2023-04-30T14:21:35;16.10;1.00
6178;DHT22;3122;48.208;11.174;2023-04-30T14:26:35;16.20;1.00
6178;DHT22;3122;48.208;11.174;2023-04-30T14:31:36;16.20;1.00
6178;DHT22;3122;48.208;11.174;2023-04-30T14:36:36;16.20;1.00
6178;DHT22;3122;48.208;11.174;2023-04-30T14:41:37;15.90;1.00
6178;DHT22;3122;48.208;11.174;2023-04-30T14:46:38;15.70;1.00
6178;DHT22;3122;48.208;11.174;2023-04-30T14:51:38;15.90;1.00
6178;DHT22;3122;48.208;11.174;2023-04-30T14:56:39;15.70;1.00
6178;DHT22;3122;48.208;11.174;2023-04-30T15:01:41;15.80;1.00
6178;DHT22;3122;48.208;11.174;2023-04-30T15:06:41;15.90;1.00
6178;DHT22;3122;48.208;11.174;2023-04-30T15:11:42;16.40;1.00
6178;DHT22;3122;48.208;11.174;2023-04-30T15:16:42;16.80;1.00
6178;DHT22;3122;48.208;11.174;2023-04-30T15:21:43;16.50;1.00
6178;DHT22;3122;48.208;11.174;2023-04-30T15:26:43;16.90;1.00
6178;DHT22;3122;48.208;11.174;2023-04-30T15:31:44;16.60;1.00
6178;DHT22;3122;48.208;11.174;2023-04-30T15:36:45;17.00;1.00
6178;DHT22;3122;48.208;11.174;2023-04-30T15:41:45;16.80;1.00
6178;DHT22;3122;48.208;11.174;2023-04-30T15:46:46;17.30;1.00
6178;DHT22;3122;48.208;11.174;2023-04-30T15:51:47;16.80;1.00
6178;DHT22;3122;48.208;11.174;2023-04-30T15:56:48;17.00;1.00
6178;DHT22;3122;48.208;11.174;2023-04-30T16:01:49;16.80;1.00
6178;DHT22;3122;48.208;11.174;2023-04-30T16:06:49;16.60;1.00
6178;DHT22;3122;48.208;11.174;2023-04-30T16:11:50;16.30;1.00
6178;DHT22;3122;48.208;11.174;2023-04-30T16:16:51;16.60;1.00
6178;DHT22;3122;48.208;11.174;2023-04-30T16:21:51;16.80;1.00
6178;DHT22;3122;48.208;11.174;2023-04-30T16:26:52;16.60;1.00
6178;DHT22;3122;48.208;11.174;2023-04-30T16:31:53;16.40;1.00
6178;DHT22;3122;48.208;11.174;2023-04-30T16:36:53;16.10;1.00
6178;DHT22;3122;48.208;11.174;2023-04-30T16:41:54;15.70;1.00
6178;DHT22;3122;48.208;11.174;2023-04-30T16:46:54;15.50;1.00
6178;DHT22;3122;48.208;11.174;2023-04-30T16:51:58;15.30;1.00
6178;DHT22;3122;48.208;11.174;2023-04-30T16:56:59;15.40;1.00
6178;DHT22;3122;48.208;11.174;2023-04-30T17:02:00;15.20;1.00
6178;DHT22;3122;48.208;11.174;2023-04-30T17:07:01;15.40;1.00
6178;DHT22;3122;48.208;11.174;2023-04-30T17:12:02;15.50;1.00
6178;DHT22;3122;48.208;11.174;2023-04-30T17:17:04;15.50;1.00
6178;DHT22;3122;48.208;11.174;2023-04-30T17:22:05;15.30;1.00
6178;DHT22;3122;48.208;11.174;2023-04-30T17:27:06;15.10;1.00
6178;DHT22;3122;48.208;11.174;2023-04-30T17:32:07;14.80;1.00
6178;DHT22;3122;48.208;11.174;2023-04-30T17:37:09;14.50;1.00
6178;DHT22;3122;48.208;11.174;2023-04-30T17:42:10;14.50;1.00
6178;DHT22;3122;48.208;11.174;2023-04-30T17:47:12;14.40;1.00
6178;DHT22;3122;48.208;11.174;2023-04-30T17:52:13;14.30;1.00
6178;DHT22;3122;48.208;11.174;2023-04-30T17:57:13;14.10;1.00
6178;DHT22;3122;48.208;11.174;2023-04-30T18:02:14;14.00;1.00
6178;DHT22;3122;48.208;11.174;2023-04-30T18:07:15;13.90;1.00
6178;DHT22;3122;48.208;11.174;2023-04-30T18:12:16;13.70;1.00
6178;DHT22;3122;48.208;11.174;2023-04-30T18:17:17;13.60;1.00
6178;DHT22;3122;48.208;11.174;2023-04-30T18:22:17;13.60;1.00
6178;DHT22;3122;48.208;11.174;2023-04-30T18:27:19;13.40;1.00
6178;DHT22;3122;48.208;11.174;2023-04-30T18:32:19;13.30;1.00
6178;DHT22;3122;48.208;11.174;2023-04-30T18:37:20;13.20;1.00
6178;DHT22;3122;48.208;11.174;2023-04-30T18:42:22;13.10;1.00
6178;DHT22;3122;48.208;11.174;2023-04-30T18:47:24;12.90;1.00
6178;DHT22;3122;48.208;11.174;2023-04-30T18:52:25;12.80;1.00
6178;DHT22;3122;48.208;11.174;2023-04-30T18:57:25;12.80;1.00
6178;DHT22;3122;48.208;11.174;2023-04-30T19:02:26;12.80;1.00
6178;DHT22;3122;48.208;11.174;2023-04-30T19:07:27;12.50;1.00
6178;DHT22;3122;48.208;11.174;2023-04-30T19:12:27;12.50;1.00
6178;DHT22;3122;48.208;11.174;2023-04-30T19:17:28;12.40;1.00
6178;DHT22;3122;48.208;11.174;2023-04-30T19:22:29;12.30;1.00
6178;DHT22;3122;48.208;11.174;2023-04-30T19:27:29;12.10;1.00
6178;DHT22;3122;48.208;11.174;2023-04-30T19:32:30;12.10;1.00
6178;DHT22;3122;48.208;11.174;2023-04-30T19:37:30;12.10;1.00
6178;DHT22;3122;48.208;11.174;2023-04-30T19:42:31;11.90;1.00
6178;DHT22;3122;48.208;11.174;2023-04-30T19:47:32;11.80;1.00
6178;DHT22;3122;48.208;11.174;2023-04-30T19:52:32;11.80;1.00
6178;DHT22;3122;48.208;11.174;2023-04-30T19:57:34;11.70;1.00
6178;DHT22;3122;48.208;11.174;2023-04-30T20:02:35;11.40;1.00
6178;DHT22;3122;48.208;11.174;2023-04-30T20:07:35;11.40;1.00
6178;DHT22;3122;48.208;11.174;2023-04-30T20:12:36;11.40;1.00
6178;DHT22;3122;48.208;11.174;2023-04-30T20:17:37;11.40;1.00
6178;DHT22;3122;48.208;11.174;2023-04-30T20:22:38;11.40;1.00
6178;DHT22;3122;48.208;11.174;2023-04-30T20:27:39;11.40;1.00
6178;DHT22;3122;48.208;11.174;2023-04-30T20:32:40;11.20;1.00
6178;DHT22;3122;48.208;11.174;2023-04-30T20:37:40;11.20;1.00
6178;DHT22;3122;48.208;11.174;2023-04-30T20:42:41;11.00;1.00
6178;DHT22;3122;48.208;11.174;2023-04-30T20:47:42;11.00;1.00
6178;DHT22;3122;48.208;11.174;2023-04-30T20:52:42;11.10;1.00
6178;DHT22;3122;48.208;11.174;2023-04-30T20:57:43;11.10;1.00
6178;DHT22;3122;48.208;11.174;2023-04-30T21:02:43;11.00;1.00
6178;DHT22;3122;48.208;11.174;2023-04-30T21:07:44;10.90;1.00
6178;DHT22;3122;48.208;11.174;2023-04-30T21:12:45;10.80;1.00
6178;DHT22;3122;48.208;11.174;2023-04-30T21:17:46;10.80;1.00
6178;DHT22;3122;48.208;11.174;2023-04-30T21:22:47;10.80;1.00
6178;DHT22;3122;48.208;11.174;2023-04-30T21:27:48;10.80;1.00
6178;DHT22;3122;48.208;11.174;2023-04-30T21:32:48;10.80;1.00
6178;DHT22;3122;48.208;11.174;2023-04-30T21:37:49;10.60;1.00
6178;DHT22;3122;48.208;11.174;2023-04-30T21:42:50;10.50;1.00
6178;DHT22;3122;48.208;11.174;2023-04-30T21:47:51;10.50;1.00
6178;DHT22;3122;48.208;11.174;2023-04-30T21:52:52;10.50;1.00
6178;DHT22;3122;48.208;11.174;2023-04-30T21:57:53;10.60;1.00
6178;DHT22;3122;48.208;11.174;2023-04-30T22:02:54;10.50;1.00
6178;DHT22;3122;48.208;11.174;2023-04-30T22:07:55;10.50;1.00
6178;DHT22;3122;48.208;11.174;2023-04-30T22:12:55;10.40;1.00
6178;DHT22;3122;48.208;11.174;2023-04-30T22:17:56;10.40;1.00
6178;DHT22;3122;48.208;11.174;2023-04-30T22:22:56;10.30;1.00
6178;DHT22;3122;48.208;11.174;2023-04-30T22:27:57;10.30;1.00
6178;DHT22;3122;48.208;11.174;2023-04-30T22:32:58;10.30;1.00
6178;DHT22;3122;48.208;11.174;2023-04-30T22:37:58;10.20;1.00
6178;DHT22;3122;48.208;11.174;2023-04-30T22:43:01;10.30;1.00
6178;DHT22;3122;48.208;11.174;2023-04-30T22:48:01;10.30;1.00
6178;DHT22;3122;48.208;11.174;2023-04-30T22:53:02;10.20;1.00
6178;DHT22;3122;48.208;11.174;2023-04-30T22:58:02;10.10;1.00
6178;DHT22;3122;48.208;11.174;2023-04-30T23:03:03;10.10;1.00
6178;DHT22;3122;48.208;11.174;2023-04-30T23:08:04;10.00;1.00
6178;DHT22;3122;48.208;11.174;2023-04-30T23:13:05;9.80;1.00
6178;DHT22;3122;48.208;11.174;2023-04-30T23:18:07;9.70;1.00
6178;DHT22;3122;48.208;11.174;2023-04-30T23:23:07;9.70;1.00
6178;DHT22;3122;48.208;11.174;2023-04-30T23:28:08;9.70;1.00
6178;DHT22;3122;48.208;11.174;2023-04-30T23:33:09;9.70;1.00
6178;DHT22;3122;48.208;11.174;2023-04-30T23:38:10;9.60;1.00
6178;DHT22;3122;48.208;11.174;2023-04-30T23:43:10;9.60;1.00
6178;DHT22;3122;48.208;11.174;2023-04-30T23:48:11;9.50;1.00
6178;DHT22;3122;48.208;11.174;2023-04-30T23:53:12;9.40;1.00
6178;DHT22;3122;48.208;11.174;2023-04-30T23:58:13;9.40;1.00
